Time;durP1;ratioP1;P1;durP2;ratioP2;P2;SDS_P1;SDS_P2;PMS_P1;PMS_P2;Temp;Humidity;BMP_temperature;BMP_pressure;BME280_temperature;BME280_humidity;BME280_pressure;Samples;Min_cycle;Max_cycle;Signal;HPM_P1;HPM_P2
2022/10/13 00:01:19;;;;;;;10.87;7.50;;;9.20;99.90;;;;;;6245665;22;20190;-46
2022/10/13 00:03:46;;;;;;;10.80;6.80;;;9.20;99.90;;;;;;6247076;22;20154;-44
2022/10/13 00:06:14;;;;;;;10.30;7.07;;;9.20;99.90;;;;;;6247960;22;20290;-46
2022/10/13 00:08:41;;;;;;;12.27;6.67;;;9.20;99.90;;;;;;6246164;23;20199;-46
2022/10/13 00:11:12;;;;;;;18.80;6.97;;;9.20;99.90;;;;;;6246013;23;20185;-45
2022/10/13 00:13:38;;;;;;;11.00;6.90;;;9.20;99.90;;;;;;6247936;22;20153;-45
2022/10/13 00:16:04;;;;;;;12.00;7.33;;;9.30;99.90;;;;;;6248000;22;20164;-45
2022/10/13 00:18:29;;;;;;;12.07;7.77;;;9.30;99.90;;;;;;6247826;22;20184;-46
2022/10/13 00:20:55;;;;;;;12.10;7.00;;;9.30;99.90;;;;;;6247759;22;20184;-47
2022/10/13 00:23:21;;;;;;;11.30;6.87;;;9.30;99.90;;;;;;6247604;22;20514;-45
2022/10/13 00:25:48;;;;;;;13.37;7.67;;;9.30;99.90;;;;;;6247428;22;20155;-45
2022/10/13 00:28:17;;;;;;;13.97;7.30;;;9.40;99.90;;;;;;6247328;22;20173;-46
2022/10/13 00:30:43;;;;;;;10.63;7.37;;;9.40;99.90;;;;;;6247922;22;20159;-46
2022/10/13 00:33:10;;;;;;;17.10;7.53;;;9.50;99.90;;;;;;6247637;22;20157;-46
2022/10/13 00:35:41;;;;;;;14.10;7.47;;;9.50;99.90;;;;;;6247761;22;20153;-44
2022/10/13 00:38:07;;;;;;;11.60;7.30;;;9.50;99.90;;;;;;6247325;22;20179;-44
2022/10/13 00:40:32;;;;;;;12.93;7.20;;;9.50;99.90;;;;;;6245630;23;20184;-45
2022/10/13 00:42:58;;;;;;;14.17;6.83;;;9.50;99.90;;;;;;6245823;23;20604;-46
2022/10/13 00:45:25;;;;;;;14.07;7.73;;;9.60;99.90;;;;;;6247283;22;20162;-46
2022/10/13 00:47:59;;;;;;;12.77;6.83;;;9.60;99.90;;;;;;6247225;22;20666;-46
2022/10/13 00:50:36;;;;;;;12.17;7.00;;;9.60;99.90;;;;;;6247689;22;20154;-45
2022/10/13 00:53:03;;;;;;;11.00;6.93;;;9.60;99.90;;;;;;6247587;22;20148;-46
2022/10/13 00:55:33;;;;;;;16.03;7.27;;;9.70;99.90;;;;;;6247159;22;20181;-45
2022/10/13 00:58:01;;;;;;;10.67;6.53;;;9.70;99.90;;;;;;6247606;22;20561;-47
2022/10/13 01:00:28;;;;;;;15.57;6.87;;;9.70;99.90;;;;;;6247040;22;20187;-47
2022/10/13 01:02:54;;;;;;;11.33;7.07;;;9.70;99.90;;;;;;6247860;22;20149;-46
2022/10/13 01:05:20;;;;;;;10.73;6.90;;;9.70;99.90;;;;;;6247487;22;20174;-45
2022/10/13 01:07:50;;;;;;;14.33;6.73;;;9.70;99.90;;;;;;6247313;22;20178;-44
2022/10/13 01:10:28;;;;;;;16.57;7.70;;;9.70;99.90;;;;;;6247265;22;20161;-45
2022/10/13 01:13:10;;;;;;;16.07;7.27;;;9.70;99.90;;;;;;6247463;22;20146;-45
2022/10/13 01:15:52;;;;;;;11.67;6.60;;;9.80;99.90;;;;;;6247187;22;20517;-45
2022/10/13 01:18:17;;;;;;;11.03;6.67;;;9.80;99.90;;;;;;6247175;22;20634;-42
2022/10/13 01:21:42;;;;;;;13.53;7.47;;;9.80;99.90;;;;;;6247213;22;20244;-40
2022/10/13 01:24:34;;;;;;;10.43;6.50;;;9.80;99.90;;;;;;6154679;23;20182;-41
2022/10/13 01:27:18;;;;;;;12.17;6.23;;;9.80;99.90;;;;;;6154652;23;20179;-41
2022/10/13 01:30:02;;;;;;;13.50;6.80;;;9.80;99.90;;;;;;6225369;22;20237;-40
2022/10/13 01:33:05;;;;;;;11.73;6.30;;;9.80;99.90;;;;;;6247514;22;20157;-42
2022/10/13 01:36:10;;;;;;;8.83;5.80;;;9.80;99.90;;;;;;6247406;22;20187;-40
2022/10/13 01:38:43;;;;;;;14.20;6.77;;;9.70;99.90;;;;;;6242560;23;20179;-38
2022/10/13 01:41:17;;;;;;;10.20;6.53;;;9.70;99.90;;;;;;6246901;22;20172;-42
2022/10/13 01:44:00;;;;;;;16.13;7.13;;;9.70;99.90;;;;;;6247104;22;20224;-41
2022/10/13 01:46:29;;;;;;;10.13;6.47;;;9.70;99.90;;;;;;6246986;22;20152;-39
2022/10/13 01:48:58;;;;;;;8.83;6.03;;;9.70;99.90;;;;;;6247036;22;20234;-40
2022/10/13 01:51:26;;;;;;;14.47;6.87;;;9.70;99.90;;;;;;6246673;22;20157;-41
2022/10/13 01:53:52;;;;;;;12.73;6.77;;;9.70;99.90;;;;;;6246611;22;20232;-40
2022/10/13 01:56:18;;;;;;;9.40;6.20;;;9.70;99.90;;;;;;6245042;23;20160;-39
2022/10/13 01:58:44;;;;;;;12.27;6.50;;;9.70;99.90;;;;;;6246861;22;20213;-40
2022/10/13 02:01:15;;;;;;;8.57;6.00;;;9.70;99.90;;;;;;6245033;23;20247;-42
2022/10/13 02:03:51;;;;;;;11.40;6.30;;;9.70;99.90;;;;;;6246615;22;20140;-43
2022/10/13 02:06:25;;;;;;;11.20;6.23;;;9.60;99.90;;;;;;6246348;22;20488;-41
2022/10/13 02:09:07;;;;;;;12.10;7.40;;;9.60;99.90;;;;;;6246960;22;20140;-39
2022/10/13 02:11:33;;;;;;;13.33;6.37;;;9.60;99.90;;;;;;6246594;22;20141;-43
2022/10/13 02:14:20;;;;;;;15.47;6.93;;;9.60;99.90;;;;;;6246483;22;20226;-43
2022/10/13 02:16:49;;;;;;;12.43;7.20;;;9.60;99.90;;;;;;6246799;22;20172;-39
2022/10/13 02:19:17;;;;;;;11.40;7.00;;;9.60;99.90;;;;;;6246385;22;20153;-40
2022/10/13 02:21:44;;;;;;;11.97;6.10;;;9.70;99.90;;;;;;6246459;22;20188;-41
2022/10/13 02:24:10;;;;;;;13.77;6.97;;;9.70;99.90;;;;;;6246722;22;20577;-41
2022/10/13 02:26:36;;;;;;;12.83;6.93;;;9.70;99.90;;;;;;6245848;22;20202;-42
2022/10/13 02:29:11;;;;;;;11.13;6.57;;;9.70;99.90;;;;;;6246740;22;20156;-40
2022/10/13 02:31:37;;;;;;;11.87;6.63;;;9.60;99.90;;;;;;6246323;22;20162;-40
2022/10/13 02:34:03;;;;;;;10.63;6.37;;;9.60;99.90;;;;;;6246205;22;20162;-40
2022/10/13 02:36:28;;;;;;;12.67;7.20;;;9.60;99.90;;;;;;6246218;22;20209;-40
2022/10/13 02:38:54;;;;;;;11.60;7.13;;;9.70;99.90;;;;;;6246305;22;20152;-42
2022/10/13 02:41:19;;;;;;;13.10;7.00;;;9.70;99.90;;;;;;6244487;23;20267;-38
2022/10/13 02:43:45;;;;;;;8.77;6.60;;;9.70;99.90;;;;;;6246151;22;20168;-40
2022/10/13 02:46:10;;;;;;;15.77;7.13;;;9.70;99.90;;;;;;6246892;22;20157;-40
2022/10/13 02:48:36;;;;;;;10.63;7.13;;;9.70;99.90;;;;;;6246093;22;20255;-43
2022/10/13 02:51:01;;;;;;;12.30;6.50;;;9.70;99.90;;;;;;6246128;22;20156;-42
2022/10/13 02:53:27;;;;;;;10.20;6.23;;;9.70;99.90;;;;;;6247002;22;20610;-40
2022/10/13 02:55:52;;;;;;;14.60;7.60;;;9.70;99.90;;;;;;6246048;22;20161;-40
2022/10/13 02:58:18;;;;;;;10.07;7.13;;;9.70;99.90;;;;;;6246046;22;20233;-40
2022/10/13 03:00:44;;;;;;;11.53;7.43;;;9.70;99.90;;;;;;6246644;22;20179;-41
2022/10/13 03:03:10;;;;;;;12.60;6.57;;;9.70;99.90;;;;;;6246024;22;20147;-41
2022/10/13 03:05:36;;;;;;;16.50;7.60;;;9.80;99.90;;;;;;6244495;23;20159;-42
2022/10/13 03:08:02;;;;;;;13.97;7.90;;;9.80;99.90;;;;;;6245972;22;20181;-42
2022/10/13 03:10:29;;;;;;;13.00;7.80;;;9.80;99.90;;;;;;6245955;22;20154;-40
2022/10/13 03:12:55;;;;;;;10.83;7.03;;;9.90;99.90;;;;;;6244971;23;20588;-39
2022/10/13 03:15:21;;;;;;;12.33;7.07;;;9.90;99.90;;;;;;6245958;22;20159;-41
2022/10/13 03:17:47;;;;;;;15.30;7.47;;;9.90;99.90;;;;;;6245957;22;20181;-41
2022/10/13 03:20:12;;;;;;;14.00;7.13;;;9.90;99.90;;;;;;6245969;22;20184;-42
2022/10/13 03:22:38;;;;;;;14.73;7.73;;;9.90;99.90;;;;;;6245824;22;20531;-41
2022/10/13 03:25:04;;;;;;;13.40;7.47;;;9.90;99.90;;;;;;6244380;23;20575;-41
2022/10/13 03:27:29;;;;;;;15.10;7.50;;;9.90;99.90;;;;;;6245920;22;20250;-43
2022/10/13 03:29:55;;;;;;;11.97;7.80;;;9.90;99.90;;;;;;6244389;23;20161;-41
2022/10/13 03:32:20;;;;;;;14.80;8.53;;;9.90;99.90;;;;;;6245986;22;20155;-42
2022/10/13 03:34:46;;;;;;;15.53;8.20;;;9.90;99.90;;;;;;6245929;22;20184;-42
2022/10/13 03:37:12;;;;;;;17.13;8.30;;;9.90;99.90;;;;;;6246535;22;20179;-42
2022/10/13 03:39:37;;;;;;;10.50;7.43;;;9.90;99.90;;;;;;6248019;22;20487;-42
2022/10/13 03:42:03;;;;;;;14.57;8.57;;;10.00;99.90;;;;;;6248348;22;20162;-42
2022/10/13 03:44:28;;;;;;;16.00;9.10;;;9.90;99.90;;;;;;6248392;22;20210;-43
2022/10/13 03:46:54;;;;;;;11.77;7.87;;;9.90;99.90;;;;;;6248376;22;20180;-43
2022/10/13 03:49:20;;;;;;;12.83;7.67;;;9.90;99.90;;;;;;6248021;22;20178;-39
2022/10/13 03:51:45;;;;;;;17.40;7.60;;;9.90;99.90;;;;;;6247788;22;20227;-40
2022/10/13 03:54:12;;;;;;;13.70;8.23;;;9.90;99.90;;;;;;6247938;22;20179;-40
2022/10/13 03:56:38;;;;;;;12.80;7.90;;;9.90;99.90;;;;;;6247741;23;20636;-40
2022/10/13 03:59:04;;;;;;;14.40;7.67;;;9.90;99.90;;;;;;6247777;22;20156;-42
2022/10/13 04:01:31;;;;;;;15.13;7.43;;;9.90;99.90;;;;;;6246179;23;20190;-41
2022/10/13 04:03:59;;;;;;;13.40;7.53;;;10.80;99.90;;;;;;6248112;22;20590;-42
2022/10/13 04:06:25;;;;;;;14.57;8.17;;;9.90;99.90;;;;;;6247680;22;20159;-39
2022/10/13 04:08:51;;;;;;;13.10;7.40;;;9.90;99.90;;;;;;6247731;22;20678;-39
2022/10/13 04:11:17;;;;;;;10.93;7.10;;;9.80;99.90;;;;;;6247870;22;20184;-39
2022/10/13 04:13:43;;;;;;;11.03;7.37;;;9.80;99.90;;;;;;6247664;22;20158;-40
2022/10/13 04:16:15;;;;;;;9.90;7.17;;;9.80;99.90;;;;;;6247661;22;20159;-40
2022/10/13 04:18:40;;;;;;;9.30;6.90;;;9.80;99.90;;;;;;6247458;22;20213;-39
2022/10/13 04:21:09;;;;;;;12.13;7.10;;;9.80;99.90;;;;;;6247573;22;20198;-41
2022/10/13 04:23:35;;;;;;;11.07;7.10;;;9.70;99.90;;;;;;6248057;22;20226;-41
2022/10/13 04:26:00;;;;;;;12.37;6.87;;;9.80;99.90;;;;;;6247467;22;20533;-41
2022/10/13 04:28:26;;;;;;;11.07;6.47;;;9.80;99.90;;;;;;6245820;23;20177;-41
2022/10/13 04:30:51;;;;;;;10.07;6.40;;;9.80;99.90;;;;;;6247482;22;20167;-41
2022/10/13 04:33:17;;;;;;;11.30;6.13;;;9.70;99.90;;;;;;6247774;22;20159;-42
2022/10/13 04:35:42;;;;;;;11.13;6.07;;;9.70;99.90;;;;;;6247560;22;20237;-42
2022/10/13 04:38:08;;;;;;;10.73;6.87;;;9.70;99.90;;;;;;6247292;22;20177;-40
2022/10/13 04:40:34;;;;;;;13.00;6.87;;;9.70;99.90;;;;;;6247670;22;20178;-40
2022/10/13 04:43:00;;;;;;;11.30;6.20;;;9.70;99.90;;;;;;6247494;22;20172;-40
2022/10/13 04:45:26;;;;;;;16.10;6.30;;;9.70;99.90;;;;;;6247260;22;20155;-41
2022/10/13 04:47:52;;;;;;;9.10;5.53;;;9.70;99.90;;;;;;6247700;22;20183;-42
2022/10/13 04:50:17;;;;;;;11.73;6.33;;;9.70;99.90;;;;;;6247388;22;20193;-41
2022/10/13 04:52:43;;;;;;;13.40;6.60;;;9.80;99.90;;;;;;6247227;22;20598;-43
2022/10/13 04:55:09;;;;;;;12.40;6.27;;;9.70;99.90;;;;;;6247853;22;20159;-40
2022/10/13 04:57:34;;;;;;;12.13;6.50;;;9.70;99.90;;;;;;6247136;22;20183;-41
2022/10/13 05:00:00;;;;;;;11.13;6.50;;;9.80;99.90;;;;;;6247149;22;20649;-41
2022/10/13 05:02:26;;;;;;;12.50;6.40;;;9.80;99.90;;;;;;6245791;23;20156;-39
2022/10/13 05:04:52;;;;;;;10.63;6.53;;;9.80;99.90;;;;;;6247158;22;20162;-41
2022/10/13 05:07:18;;;;;;;11.27;6.10;;;9.90;99.90;;;;;;6247355;22;20172;-41
2022/10/13 05:09:43;;;;;;;15.23;6.70;;;9.90;99.90;;;;;;6247470;22;20235;-40
2022/10/13 05:12:09;;;;;;;18.50;6.57;;;9.90;99.90;;;;;;6247205;22;20167;-40
2022/10/13 05:14:34;;;;;;;8.40;6.03;;;9.90;99.90;;;;;;6247418;22;20219;-41
2022/10/13 05:17:01;;;;;;;8.83;6.23;;;9.90;99.90;;;;;;6247208;22;20617;-41
2022/10/13 05:19:27;;;;;;;13.83;6.70;;;9.90;99.90;;;;;;6247622;22;20153;-40
2022/10/13 05:21:52;;;;;;;11.77;6.73;;;9.90;99.90;;;;;;6247061;22;20188;-41
2022/10/13 05:24:20;;;;;;;14.30;7.03;;;9.90;99.90;;;;;;6247825;22;20218;-40
2022/10/13 05:26:46;;;;;;;10.93;6.57;;;9.90;99.90;;;;;;6247247;22;20208;-41
2022/10/13 05:29:11;;;;;;;10.10;6.57;;;9.90;99.90;;;;;;6246276;22;21467;-40
2022/10/13 05:31:37;;;;;;;12.87;6.83;;;9.90;99.90;;;;;;6247584;22;20168;-38
2022/10/13 05:34:03;;;;;;;11.47;6.40;;;9.90;99.90;;;;;;6247650;22;20244;-39
2022/10/13 05:36:31;;;;;;;14.57;6.60;;;9.90;99.90;;;;;;6245674;23;20158;-41
2022/10/13 05:38:59;;;;;;;14.77;7.10;;;9.90;99.90;;;;;;6247167;22;20152;-40
2022/10/13 05:41:27;;;;;;;9.57;6.13;;;9.90;99.90;;;;;;6245623;23;20194;-41
2022/10/13 05:43:56;;;;;;;11.87;6.63;;;9.90;99.90;;;;;;6247212;22;20160;-39
2022/10/13 05:46:22;;;;;;;11.87;6.37;;;9.90;99.90;;;;;;6246967;22;20154;-38
2022/10/13 05:48:48;;;;;;;12.17;6.57;;;9.90;99.90;;;;;;6247396;22;20165;-40
2022/10/13 05:51:18;;;;;;;9.63;6.60;;;9.80;99.90;;;;;;6247036;22;20162;-39
2022/10/13 05:53:48;;;;;;;11.43;6.27;;;9.80;99.90;;;;;;6247409;22;20607;-39
2022/10/13 05:56:18;;;;;;;16.13;7.20;;;9.80;99.90;;;;;;6246928;22;20160;-41
2022/10/13 05:58:51;;;;;;;15.37;7.50;;;9.80;99.90;;;;;;6247410;22;20464;-39
2022/10/13 06:01:21;;;;;;;13.87;7.23;;;9.80;99.90;;;;;;6246508;22;20172;-42
2022/10/13 06:03:49;;;;;;;16.87;7.00;;;9.70;99.90;;;;;;6247280;22;20210;-39
2022/10/13 06:06:15;;;;;;;12.33;8.03;;;9.80;99.90;;;;;;6248091;22;20156;-40
2022/10/13 06:08:41;;;;;;;14.33;6.93;;;9.80;99.90;;;;;;6245217;23;20160;-42
2022/10/13 06:11:07;;;;;;;13.20;7.17;;;9.80;99.90;;;;;;6246669;22;20157;-40
2022/10/13 06:13:33;;;;;;;9.17;6.53;;;9.90;99.90;;;;;;6245296;23;20175;-41
2022/10/13 06:15:59;;;;;;;11.53;7.23;;;9.90;99.90;;;;;;6247112;22;20167;-39
2022/10/13 06:18:24;;;;;;;15.60;7.67;;;9.90;99.90;;;;;;6246752;22;20180;-39
2022/10/13 06:20:50;;;;;;;14.70;7.63;;;9.90;99.90;;;;;;6246748;22;20182;-42
2022/10/13 06:23:15;;;;;;;13.40;7.27;;;9.90;99.90;;;;;;6245269;23;20512;-42
2022/10/13 06:25:51;;;;;;;14.70;8.13;;;9.90;99.90;;;;;;6246810;22;20610;-41
2022/10/13 06:28:18;;;;;;;15.43;7.70;;;9.90;99.90;;;;;;6246733;22;20173;-42
2022/10/13 06:30:52;;;;;;;16.07;8.60;;;10.00;99.90;;;;;;6246524;22;20176;-39
2022/10/13 06:33:19;;;;;;;19.27;8.57;;;9.90;99.90;;;;;;6247160;22;20140;-42
2022/10/13 06:35:44;;;;;;;14.20;7.70;;;10.00;99.90;;;;;;6246786;22;20153;-42
2022/10/13 06:38:10;;;;;;;15.70;8.23;;;10.00;99.90;;;;;;6246933;22;20176;-38
2022/10/13 06:40:36;;;;;;;16.07;8.37;;;10.00;99.90;;;;;;6247013;22;20267;-42
2022/10/13 06:43:02;;;;;;;15.63;7.90;;;10.10;99.90;;;;;;6245441;23;20153;-39
2022/10/13 06:45:28;;;;;;;13.73;8.20;;;10.10;99.90;;;;;;6246460;22;20164;-38
2022/10/13 06:47:53;;;;;;;17.10;8.13;;;10.20;99.90;;;;;;6246554;22;20176;-40
2022/10/13 06:50:20;;;;;;;15.63;8.73;;;10.20;99.90;;;;;;6247109;22;20159;-39
2022/10/13 06:52:46;;;;;;;15.03;8.53;;;10.20;99.90;;;;;;6246394;22;20159;-37
2022/10/13 06:55:11;;;;;;;15.37;8.23;;;10.30;99.90;;;;;;6244926;23;20311;-41
2022/10/13 06:57:37;;;;;;;17.43;9.33;;;10.40;99.90;;;;;;6246364;22;20640;-38
2022/10/13 07:00:04;;;;;;;16.10;9.67;;;10.40;99.90;;;;;;6247733;22;20259;-40
2022/10/13 07:02:29;;;;;;;18.73;10.00;;;10.40;99.90;;;;;;6246295;22;20167;-38
2022/10/13 07:04:55;;;;;;;22.07;9.90;;;10.50;99.90;;;;;;6246946;22;20153;-40
2022/10/13 07:07:21;;;;;;;18.87;9.90;;;10.50;99.90;;;;;;6246236;22;20173;-39
2022/10/13 07:09:46;;;;;;;22.83;11.60;;;10.60;99.90;;;;;;6246747;22;20162;-37
2022/10/13 07:12:13;;;;;;;25.10;11.40;;;10.70;99.90;;;;;;6246461;22;20158;-38
2022/10/13 07:14:38;;;;;;;18.13;10.47;;;10.70;99.90;;;;;;6246275;22;20154;-37
2022/10/13 07:17:04;;;;;;;21.30;10.50;;;10.80;99.90;;;;;;6246120;22;20257;-38
2022/10/13 07:19:29;;;;;;;22.17;10.73;;;10.90;99.90;;;;;;6246553;22;20148;-40
2022/10/13 07:21:55;;;;;;;19.23;11.30;;;11.00;99.90;;;;;;6244578;23;20244;-40
2022/10/13 07:24:21;;;;;;;22.00;11.17;;;11.10;99.90;;;;;;6246579;22;20164;-40
2022/10/13 07:26:47;;;;;;;23.57;11.73;;;11.10;99.90;;;;;;6246420;22;20205;-37
2022/10/13 07:29:13;;;;;;;24.00;11.40;;;11.20;99.90;;;;;;6246401;22;20538;-37
2022/10/13 07:31:39;;;;;;;27.97;11.90;;;11.30;99.90;;;;;;6246668;22;20149;-41
2022/10/13 07:34:05;;;;;;;23.20;10.47;;;11.40;99.90;;;;;;6244539;23;20503;-39
2022/10/13 07:36:31;;;;;;;17.57;10.37;;;11.40;99.90;;;;;;6246047;22;20156;-38
2022/10/13 07:38:57;;;;;;;17.57;10.67;;;11.50;99.90;;;;;;6246420;22;20165;-42
2022/10/13 07:41:23;;;;;;;20.27;11.20;;;11.50;99.90;;;;;;6244438;23;20194;-39
2022/10/13 07:43:52;;;;;;;21.27;11.07;;;11.60;99.90;;;;;;6246427;22;20178;-42
2022/10/13 07:46:18;;;;;;;19.70;10.73;;;11.70;99.90;;;;;;6246213;22;20169;-39
2022/10/13 07:48:43;;;;;;;19.10;10.30;;;11.70;99.90;;;;;;6244296;23;20531;-39
2022/10/13 07:51:11;;;;;;;19.13;10.50;;;11.80;99.90;;;;;;6246228;22;20159;-40
2022/10/13 07:53:37;;;;;;;20.30;10.33;;;11.90;99.90;;;;;;6244287;23;20161;-42
2022/10/13 07:56:04;;;;;;;19.93;10.90;;;12.00;99.90;;;;;;6245994;22;20208;-41
2022/10/13 07:58:30;;;;;;;17.93;10.60;;;12.00;99.90;;;;;;6245997;22;20180;-40
2022/10/13 08:01:00;;;;;;;20.13;9.77;;;12.10;99.90;;;;;;6246544;22;20624;-40
2022/10/13 08:03:26;;;;;;;18.60;9.67;;;12.10;99.90;;;;;;6246282;22;20155;-37
2022/10/13 08:05:53;;;;;;;15.20;9.63;;;12.20;99.90;;;;;;6246315;22;20442;-38
2022/10/13 08:08:19;;;;;;;20.80;9.93;;;12.30;99.90;;;;;;6246187;22;20479;-40
2022/10/13 08:10:46;;;;;;;17.63;9.47;;;12.30;99.90;;;;;;6245812;22;20181;-42
2022/10/13 08:13:11;;;;;;;18.70;9.30;;;12.40;99.90;;;;;;6246157;22;20285;-39
2022/10/13 08:15:42;;;;;;;25.03;9.20;;;12.50;99.90;;;;;;6246300;22;20518;-39
2022/10/13 08:18:09;;;;;;;15.90;9.10;;;12.50;99.90;;;;;;6246063;22;20537;-41
2022/10/13 08:20:37;;;;;;;17.20;8.87;;;12.60;99.90;;;;;;6245997;22;20206;-40
2022/10/13 08:23:03;;;;;;;16.90;9.53;;;12.70;99.90;;;;;;6246058;22;20162;-41
2022/10/13 08:25:28;;;;;;;16.97;9.13;;;12.80;99.90;;;;;;6247292;22;20151;-39
2022/10/13 08:27:54;;;;;;;17.33;8.30;;;12.90;99.90;;;;;;6247803;22;20254;-41
2022/10/13 08:30:19;;;;;;;20.00;9.13;;;13.00;99.90;;;;;;6247529;22;20495;-40
2022/10/13 08:32:45;;;;;;;17.47;9.03;;;13.00;99.90;;;;;;6247472;22;20661;-41
2022/10/13 08:35:10;;;;;;;16.47;9.27;;;13.10;99.90;;;;;;6245965;23;20170;-43
2022/10/13 08:37:36;;;;;;;21.30;9.00;;;13.20;99.90;;;;;;6248178;22;20480;-42
2022/10/13 08:40:02;;;;;;;18.63;9.33;;;13.30;99.90;;;;;;6246190;23;20241;-40
2022/10/13 08:42:28;;;;;;;19.83;9.10;;;13.40;99.90;;;;;;6247804;22;20190;-41
2022/10/13 08:44:59;;;;;;;14.80;9.07;;;13.50;99.90;;;;;;6247403;22;20162;-40
2022/10/13 08:47:38;;;;;;;18.00;8.50;;;13.60;99.90;;;;;;6245834;23;20203;-39
2022/10/13 08:50:13;;;;;;;14.17;8.50;;;13.70;99.90;;;;;;6247394;22;20151;-40
2022/10/13 08:52:54;;;;;;;16.70;8.70;;;13.80;99.90;;;;;;6247418;22;20136;-42
2022/10/13 08:55:43;;;;;;;13.03;7.20;;;13.90;99.90;;;;;;6248209;22;20143;-40
2022/10/13 08:58:20;;;;;;;14.60;8.50;;;14.10;99.90;;;;;;6247238;22;20183;-41
2022/10/13 09:01:20;;;;;;;18.50;8.40;;;14.40;99.90;;;;;;6245144;22;20183;-41
2022/10/13 09:04:13;;;;;;;15.57;8.33;;;14.60;99.90;;;;;;6168524;22;20163;-39
2022/10/13 09:06:48;;;;;;;15.23;7.43;;;15.00;99.90;;;;;;6220715;23;20196;-42
2022/10/13 09:09:17;;;;;;;14.10;7.73;;;15.20;99.90;;;;;;6245871;23;20507;-40
2022/10/13 09:11:48;;;;;;;16.13;8.60;;;15.30;99.90;;;;;;6246123;23;20243;-41
2022/10/13 09:14:36;;;;;;;14.57;8.10;;;15.50;99.90;;;;;;6255390;22;20147;-40
2022/10/13 09:17:25;;;;;;;20.93;8.90;;;15.60;99.90;;;;;;6252639;22;20233;-39
2022/10/13 09:20:21;;;;;;;13.90;7.93;;;15.70;99.90;;;;;;6251657;22;20144;-40
2022/10/13 09:23:06;;;;;;;17.10;6.83;;;15.80;99.90;;;;;;6249693;22;20148;-37
2022/10/13 09:25:45;;;;;;;13.87;7.03;;;15.80;99.90;;;;;;6246984;22;20222;-38
2022/10/13 09:28:27;;;;;;;13.00;6.20;;;15.80;99.90;;;;;;6247383;22;20534;-40
2022/10/13 09:31:05;;;;;;;12.07;6.87;;;15.90;99.90;;;;;;6246978;22;20613;-37
2022/10/13 09:33:36;;;;;;;14.07;6.47;;;15.90;99.90;;;;;;6246954;22;20186;-39
2022/10/13 09:36:02;;;;;;;10.13;5.90;;;15.80;99.90;;;;;;6246797;22;20156;-42
2022/10/13 09:38:28;;;;;;;9.47;5.77;;;15.80;99.90;;;;;;6246793;22;20647;-40
2022/10/13 09:41:04;;;;;;;15.07;6.57;;;15.80;99.90;;;;;;6247067;22;20191;-42
2022/10/13 09:43:58;;;;;;;10.67;6.23;;;15.80;99.90;;;;;;6247583;22;20220;-40
2022/10/13 09:46:35;;;;;;;12.60;5.63;;;15.70;99.90;;;;;;6246593;22;20185;-37
2022/10/13 09:49:24;;;;;;;9.07;5.47;;;15.70;99.90;;;;;;6245359;23;20209;-39
2022/10/13 09:51:51;;;;;;;14.73;5.87;;;15.70;99.90;;;;;;6246711;22;20274;-39
2022/10/13 09:54:44;;;;;;;10.23;5.70;;;15.70;99.90;;;;;;6246712;22;20159;-39
2022/10/13 09:57:23;;;;;;;13.03;5.90;;;15.70;99.90;;;;;;6245375;23;20237;-39
2022/10/13 09:59:58;;;;;;;16.60;7.20;;;15.60;99.90;;;;;;6247265;22;20146;-41
2022/10/13 10:02:36;;;;;;;10.97;5.77;;;15.70;99.90;;;;;;6246698;22;20143;-41
2022/10/13 10:05:40;;;;;;;11.53;6.10;;;15.60;99.90;;;;;;6246877;22;20139;-42
2022/10/13 10:08:17;;;;;;;10.63;6.03;;;15.70;99.90;;;;;;6242261;23;20224;-39
2022/10/13 10:10:46;;;;;;;10.30;4.43;;;15.70;99.90;;;;;;6246691;22;20248;-40
2022/10/13 10:13:13;;;;;;;15.30;5.27;;;15.70;99.90;;;;;;6246414;22;20167;-41
2022/10/13 10:15:54;;;;;;;9.57;5.33;;;15.70;99.90;;;;;;6246479;22;20217;-42
2022/10/13 10:18:35;;;;;;;10.43;6.07;;;15.80;99.90;;;;;;6244939;23;20179;-38
2022/10/13 10:21:25;;;;;;;9.63;5.37;;;15.80;99.90;;;;;;6246767;22;20168;-40
2022/10/13 10:24:21;;;;;;;10.00;5.50;;;15.80;99.90;;;;;;6246440;23;20154;-39
2022/10/13 10:27:02;;;;;;;17.33;6.10;;;15.80;99.90;;;;;;6241540;23;20175;-40
2022/10/13 10:29:53;;;;;;;10.30;6.40;;;15.80;99.90;;;;;;6245250;23;20601;-39
2022/10/13 10:32:45;;;;;;;14.20;6.50;;;15.90;99.90;;;;;;6246597;22;20217;-40
2022/10/13 10:35:31;;;;;;;10.10;6.23;;;15.90;99.90;;;;;;6246518;22;20139;-40
2022/10/13 10:38:25;;;;;;;12.73;6.77;;;15.90;99.90;;;;;;6246428;23;20180;-40
2022/10/13 10:40:58;;;;;;;11.17;6.47;;;15.90;99.90;;;;;;6244737;23;20241;-39
2022/10/13 10:43:42;;;;;;;9.70;5.90;;;15.90;99.90;;;;;;6246475;22;20147;-40
2022/10/13 10:46:18;;;;;;;12.97;6.07;;;15.90;99.90;;;;;;6246735;22;20143;-42
2022/10/13 10:48:49;;;;;;;10.43;5.83;;;15.90;99.90;;;;;;6246292;22;20143;-40
2022/10/13 10:51:16;;;;;;;11.40;6.10;;;15.90;99.90;;;;;;6246274;22;20160;-41
2022/10/13 10:54:05;;;;;;;14.10;6.50;;;15.90;99.90;;;;;;6246534;22;20155;-42
2022/10/13 10:56:49;;;;;;;12.63;6.23;;;15.90;99.90;;;;;;6246268;22;20167;-38
2022/10/13 11:00:06;;;;;;;11.17;5.97;;;15.80;99.90;;;;;;6244684;23;20170;-40
2022/10/13 11:02:37;;;;;;;9.77;5.87;;;15.80;99.90;;;;;;6246959;22;20159;-39
2022/10/13 11:05:03;;;;;;;9.53;5.93;;;15.70;99.90;;;;;;6246642;22;20205;-40
2022/10/13 11:07:29;;;;;;;8.77;5.33;;;15.70;99.90;;;;;;6246495;22;20255;-40
2022/10/13 11:09:56;;;;;;;14.20;5.93;;;15.50;99.90;;;;;;6246534;22;20148;-42
2022/10/13 11:12:25;;;;;;;11.37;7.17;;;15.50;99.90;;;;;;6246318;22;20589;-39
2022/10/13 11:15:10;;;;;;;9.13;6.13;;;15.50;99.90;;;;;;6246236;22;20155;-42
2022/10/13 11:17:42;;;;;;;9.87;5.83;;;15.40;99.90;;;;;;6246895;22;20175;-41
2022/10/13 11:20:34;;;;;;;10.70;6.13;;;15.30;99.90;;;;;;6246068;22;20189;-42
2022/10/13 11:23:07;;;;;;;11.53;6.37;;;15.30;99.90;;;;;;6203237;22;20202;-44
2022/10/13 11:25:35;;;;;;;12.90;6.80;;;15.20;99.90;;;;;;6246243;22;20441;-40
2022/10/13 11:33:59;;;;;;;10.80;6.23;;;15.20;99.90;;;;;;6246461;23;20519;-39
2022/10/13 11:36:47;;;;;;;14.03;6.50;;;15.20;99.90;;;;;;6244885;23;20160;-41
2022/10/13 11:39:59;;;;;;;11.97;6.17;;;15.20;99.90;;;;;;6245080;23;20155;-42
2022/10/13 11:42:55;;;;;;;11.37;6.13;;;15.30;99.90;;;;;;6246214;22;20621;-41
2022/10/13 11:45:39;;;;;;;11.20;6.73;;;15.30;99.90;;;;;;6246167;22;20155;-42
2022/10/13 11:48:14;;;;;;;11.10;6.60;;;15.50;99.90;;;;;;6245936;22;20167;-40
2022/10/13 11:50:52;;;;;;;16.07;6.00;;;15.50;99.90;;;;;;6246555;22;20147;-40
2022/10/13 11:53:35;;;;;;;10.27;5.80;;;15.60;99.90;;;;;;6246748;22;20143;-41
2022/10/13 11:56:01;;;;;;;9.67;6.60;;;15.60;99.90;;;;;;6245797;22;20196;-40
2022/10/13 11:58:34;;;;;;;10.07;6.17;;;15.80;99.90;;;;;;6246676;22;20171;-40
2022/10/13 12:01:12;;;;;;;8.30;6.23;;;15.80;99.90;;;;;;6247888;22;20490;-40
2022/10/13 12:03:41;;;;;;;14.07;6.40;;;16.00;99.90;;;;;;6248135;22;20138;-41
2022/10/13 12:06:33;;;;;;;12.77;7.23;;;16.10;99.90;;;;;;6246269;23;20552;-41
2022/10/13 12:09:23;;;;;;;14.93;7.40;;;16.30;99.90;;;;;;6246274;23;20152;-42
2022/10/13 12:12:03;;;;;;;11.83;6.73;;;16.40;99.90;;;;;;6246473;23;20166;-40
2022/10/13 12:14:38;;;;;;;12.67;6.80;;;16.40;99.90;;;;;;6248171;22;20144;-39
2022/10/13 12:17:20;;;;;;;12.60;6.73;;;16.50;99.90;;;;;;6247726;22;20178;-38
2022/10/13 12:19:46;;;;;;;8.77;6.60;;;16.60;99.90;;;;;;6247667;22;20147;-40
2022/10/13 12:22:12;;;;;;;15.40;7.13;;;16.70;99.90;;;;;;6249138;22;20159;-46
2022/10/13 12:24:38;;;;;;;11.60;6.87;;;16.80;99.90;;;;;;6249331;22;20474;-48
2022/10/13 12:27:19;;;;;;;14.03;6.83;;;16.80;99.90;;;;;;6249148;22;20172;-46
2022/10/13 12:29:45;;;;;;;13.27;6.73;;;16.90;99.90;;;;;;6249037;22;20166;-47
2022/10/13 12:32:23;;;;;;;11.00;6.07;;;16.80;99.90;;;;;;6247340;23;20294;-46
2022/10/13 12:34:49;;;;;;;17.10;5.73;;;16.90;99.90;;;;;;6249013;22;20143;-47
2022/10/13 12:37:29;;;;;;;10.20;6.50;;;16.90;99.90;;;;;;6249074;22;20682;-47
2022/10/13 12:39:57;;;;;;;9.53;5.87;;;16.90;99.90;;;;;;6247633;23;20183;-47
2022/10/13 12:42:31;;;;;;;9.10;6.70;;;16.90;99.90;;;;;;6222410;23;20244;-45
2022/10/13 12:44:59;;;;;;;11.93;6.53;;;16.90;99.90;;;;;;6249117;22;20162;-45
2022/10/13 12:47:38;;;;;;;11.43;6.43;;;16.90;99.90;;;;;;6248758;22;20191;-47
2022/10/13 12:50:28;;;;;;;12.13;6.50;;;17.00;99.90;;;;;;6249182;22;20668;-46
2022/10/13 12:53:02;;;;;;;10.10;6.67;;;17.00;99.90;;;;;;6249741;22;20538;-39
2022/10/13 12:55:29;;;;;;;11.37;6.37;;;17.00;99.90;;;;;;6248827;22;20147;-41
2022/10/13 12:57:55;;;;;;;9.07;6.40;;;16.90;99.90;;;;;;6248281;22;20199;-38
2022/10/13 13:00:23;;;;;;;11.60;6.00;;;16.90;99.90;;;;;;6246306;23;20206;-42
2022/10/13 13:02:50;;;;;;;16.53;6.80;;;16.90;99.90;;;;;;6247813;22;20152;-44
2022/10/13 13:05:42;;;;;;;10.53;6.60;;;16.80;99.90;;;;;;6247357;23;20156;-41
2022/10/13 13:08:24;;;;;;;14.63;6.33;;;16.80;99.90;;;;;;6246391;23;20179;-42
2022/10/13 13:10:58;;;;;;;13.43;6.50;;;16.80;99.90;;;;;;6247846;22;20152;-42